Terminal Aerodrome Forecast
Issued by NWS Atlanta, GA

Home | Current Version | Previous Version | Text Only | Print | Product List | Glossary On
Versions: 1 2 3 4 5 6 7 8 9 10 11 12 13 14 15 16 17 18 19 20 21 22 23 24 25 26 27 28 29 30 31 32 33 34 35 36 37 38 39 40 41
000
FTUS42 KFFC 191700
TAFATL
TAF
KATL 191730Z 1918/2024 09008KT P6SM SCT045
      TEMPO 1918/1920 5SM -TSRA BKN035CB
     FM200900 08008KT P6SM BKN015
     FM201500 09010G15KT P6SM SCT035
     FM201900 10011G15KT P6SM FEW060=

USA.gov is the U.S. government's official web portal to all federal, state and local government web resources and services.